Time;durP1;ratioP1;P1;durP2;ratioP2;P2;SDS_P1;SDS_P2;PMS_P1;PMS_P2;Temp;Humidity;BMP_temperature;BMP_pressure;BME280_temperature;BME280_humidity;BME280_pressure;Samples;Min_cycle;Max_cycle;Signal;HPM_P1;HPM_P2
2021/05/25 00:02:19;;;;;;;12.47;11.80;;;8.30;99.90;;;;;;5008336;28;20461;-76
2021/05/25 00:04:45;;;;;;;12.40;11.80;;;8.30;99.90;;;;;;4998855;28;20466;-75
2021/05/25 00:07:12;;;;;;;11.97;11.47;;;8.30;99.90;;;;;;5000084;28;20821;-74
2021/05/25 00:09:40;;;;;;;12.63;12.03;;;8.40;99.90;;;;;;5000863;28;20813;-75
2021/05/25 00:12:07;;;;;;;12.27;11.43;;;8.30;99.90;;;;;;4997607;28;20801;-73
2021/05/25 00:14:35;;;;;;;11.83;11.30;;;8.30;99.90;;;;;;5006219;28;20465;-75
2021/05/25 00:17:01;;;;;;;12.23;11.73;;;8.30;99.90;;;;;;5003934;28;20481;-75
2021/05/25 00:19:28;;;;;;;12.97;12.00;;;8.30;99.90;;;;;;5001387;28;20476;-75
2021/05/25 00:21:54;;;;;;;11.93;11.43;;;8.30;99.90;;;;;;5000376;28;20458;-75
2021/05/25 00:24:21;;;;;;;11.60;11.10;;;8.20;99.90;;;;;;5000161;28;20470;-75
2021/05/25 00:26:48;;;;;;;11.80;11.30;;;8.20;99.90;;;;;;5000482;28;20970;-73
2021/05/25 00:29:15;;;;;;;11.47;10.97;;;8.20;99.90;;;;;;5003740;28;20489;-74
2021/05/25 00:31:42;;;;;;;12.67;12.07;;;8.10;99.90;;;;;;5000985;28;20528;-75
2021/05/25 00:34:09;;;;;;;11.30;10.80;;;8.10;99.90;;;;;;4999759;28;20466;-75
2021/05/25 00:36:36;;;;;;;12.03;11.53;;;8.10;99.90;;;;;;5002877;28;20980;-75
2021/05/25 00:39:04;;;;;;;11.87;11.37;;;8.10;99.90;;;;;;4997587;28;21312;-74
2021/05/25 00:41:30;;;;;;;12.40;11.80;;;8.00;99.90;;;;;;5001331;28;20556;-74
2021/05/25 00:43:58;;;;;;;12.53;11.93;;;8.00;99.90;;;;;;5004074;28;20474;-75
2021/05/25 00:46:24;;;;;;;12.13;11.60;;;8.00;99.90;;;;;;5003159;28;20821;-72
2021/05/25 00:48:52;;;;;;;13.17;12.47;;;7.90;99.90;;;;;;4999572;28;20463;-72
2021/05/25 00:51:18;;;;;;;12.87;12.27;;;8.00;99.90;;;;;;5000404;28;20467;-73
2021/05/25 00:53:45;;;;;;;12.47;11.90;;;8.00;99.90;;;;;;5003657;28;20697;-74
2021/05/25 00:56:12;;;;;;;12.43;11.83;;;8.00;99.90;;;;;;5004135;28;20462;-74
2021/05/25 00:58:39;;;;;;;11.90;11.30;;;8.00;99.90;;;;;;4996471;28;20490;-73
2021/05/25 01:01:06;;;;;;;12.70;12.00;;;8.00;99.90;;;;;;5002729;28;20462;-73
2021/05/25 01:03:34;;;;;;;12.50;11.90;;;8.00;99.90;;;;;;5001125;28;20458;-74
2021/05/25 01:06:01;;;;;;;13.07;12.20;;;7.90;99.90;;;;;;5004391;28;20499;-74
2021/05/25 01:08:27;;;;;;;12.53;11.93;;;7.90;99.90;;;;;;5003540;28;20466;-74
2021/05/25 01:11:02;;;;;;;12.73;12.07;;;7.90;99.90;;;;;;5003182;28;20462;-74
2021/05/25 01:13:30;;;;;;;12.87;12.27;;;7.90;99.90;;;;;;4996225;28;20853;-76
2021/05/25 01:15:58;;;;;;;12.67;12.10;;;7.90;99.90;;;;;;4997577;28;20469;-74
2021/05/25 01:18:24;;;;;;;12.50;11.80;;;7.90;99.90;;;;;;5003009;28;20501;-75
2021/05/25 01:20:52;;;;;;;12.80;12.20;;;7.90;99.90;;;;;;5003387;28;20566;-74
2021/05/25 01:23:19;;;;;;;12.63;11.93;;;7.90;99.90;;;;;;5001604;28;21251;-74
2021/05/25 01:25:48;;;;;;;11.83;11.23;;;7.80;99.90;;;;;;5002053;28;20474;-74
2021/05/25 01:28:16;;;;;;;13.83;12.73;;;8.00;99.90;;;;;;4998150;28;20467;-75
2021/05/25 01:30:46;;;;;;;11.73;11.23;;;8.00;99.90;;;;;;5000793;28;20490;-75
2021/05/25 01:33:13;;;;;;;12.03;11.43;;;8.10;99.90;;;;;;5000287;28;21003;-75
2021/05/25 01:35:40;;;;;;;12.43;11.83;;;8.10;99.90;;;;;;4999557;28;20462;-75
2021/05/25 01:38:09;;;;;;;12.50;11.80;;;8.10;99.90;;;;;;5004907;28;20498;-74
2021/05/25 01:40:37;;;;;;;13.40;12.40;;;8.10;99.90;;;;;;4997920;28;20497;-74
2021/05/25 01:43:05;;;;;;;13.00;12.40;;;8.10;99.90;;;;;;5001934;28;20465;-74
2021/05/25 01:45:32;;;;;;;12.00;11.40;;;8.10;99.90;;;;;;5003812;28;20459;-75
2021/05/25 01:48:01;;;;;;;12.30;11.80;;;8.10;99.90;;;;;;5001723;28;20449;-73
2021/05/25 01:50:28;;;;;;;12.67;11.97;;;8.10;99.90;;;;;;5002406;28;20470;-74
2021/05/25 01:53:00;;;;;;;12.60;12.00;;;8.10;99.90;;;;;;5000607;28;20842;-74
2021/05/25 01:55:32;;;;;;;12.50;11.90;;;8.00;99.90;;;;;;5005761;28;20480;-74
2021/05/25 01:58:02;;;;;;;13.07;12.27;;;8.00;99.90;;;;;;5001918;28;20576;-73
2021/05/25 02:00:29;;;;;;;12.63;12.03;;;7.90;99.90;;;;;;5000541;28;20878;-74
2021/05/25 02:02:56;;;;;;;12.63;11.83;;;7.90;99.90;;;;;;5002687;28;20546;-75
2021/05/25 02:05:23;;;;;;;12.67;12.00;;;7.90;99.90;;;;;;5003306;28;20458;-75
2021/05/25 02:07:51;;;;;;;12.60;12.10;;;7.90;99.90;;;;;;4996386;28;20792;-74
2021/05/25 02:10:23;;;;;;;12.53;11.90;;;7.90;99.90;;;;;;4993241;28;20485;-74
2021/05/25 02:12:50;;;;;;;11.90;11.17;;;7.80;99.90;;;;;;4998700;28;20469;-74
2021/05/25 02:15:18;;;;;;;11.77;11.27;;;7.80;99.90;;;;;;5002714;28;20459;-75
2021/05/25 02:17:45;;;;;;;12.10;11.60;;;7.90;99.90;;;;;;5002359;28;20490;-75
2021/05/25 02:20:12;;;;;;;11.67;11.17;;;7.90;99.90;;;;;;4995387;28;20465;-74
2021/05/25 02:22:38;;;;;;;11.97;11.47;;;8.00;99.90;;;;;;4997140;28;20462;-74
2021/05/25 02:25:06;;;;;;;11.67;11.07;;;8.00;99.90;;;;;;5000804;28;20468;-74
2021/05/25 02:27:33;;;;;;;11.37;10.87;;;8.20;99.90;;;;;;4999225;28;20469;-75
2021/05/25 02:29:59;;;;;;;12.13;10.93;;;8.20;99.90;;;;;;4998694;28;20492;-73
2021/05/25 02:32:28;;;;;;;11.37;10.77;;;8.30;99.90;;;;;;5002412;28;20511;-75
2021/05/25 02:34:55;;;;;;;11.53;10.93;;;8.30;99.90;;;;;;4993409;28;20462;-74
2021/05/25 02:37:22;;;;;;;11.20;10.70;;;8.40;99.90;;;;;;4997992;28;20577;-74
2021/05/25 02:39:48;;;;;;;11.50;11.00;;;8.40;99.90;;;;;;5001419;28;20455;-74
2021/05/25 02:42:14;;;;;;;11.60;11.10;;;8.20;99.90;;;;;;4999838;28;20895;-75
2021/05/25 02:44:41;;;;;;;10.83;10.43;;;8.30;99.90;;;;;;4995668;28;20467;-73
2021/05/25 02:47:07;;;;;;;10.87;10.47;;;8.20;99.90;;;;;;5008909;28;20521;-74
2021/05/25 02:49:34;;;;;;;11.10;10.70;;;8.20;99.90;;;;;;5001947;28;20472;-74
2021/05/25 02:52:01;;;;;;;11.60;11.10;;;8.30;99.90;;;;;;5000639;28;20485;-75
2021/05/25 02:54:27;;;;;;;11.43;10.83;;;8.30;99.90;;;;;;4998351;28;20652;-75
2021/05/25 02:56:54;;;;;;;11.73;11.07;;;8.30;99.90;;;;;;5001239;28;20553;-74
2021/05/25 02:59:20;;;;;;;10.90;10.47;;;8.40;99.90;;;;;;4997486;28;20461;-74
2021/05/25 03:01:47;;;;;;;12.00;11.30;;;8.40;99.90;;;;;;5001313;28;21042;-75
2021/05/25 03:04:13;;;;;;;12.33;11.83;;;8.50;99.90;;;;;;4998348;28;20534;-73
2021/05/25 03:06:41;;;;;;;14.50;13.80;;;8.50;99.90;;;;;;5006313;28;20526;-74
2021/05/25 03:09:07;;;;;;;14.93;14.23;;;8.40;99.90;;;;;;5006563;28;20457;-73
2021/05/25 03:11:34;;;;;;;16.33;15.37;;;8.40;99.90;;;;;;5003132;28;21008;-75
2021/05/25 03:14:00;;;;;;;16.73;15.83;;;8.30;99.90;;;;;;5001288;28;20469;-75
2021/05/25 03:16:27;;;;;;;16.77;15.97;;;8.30;99.90;;;;;;4996632;28;20475;-73
2021/05/25 03:18:54;;;;;;;17.23;16.33;;;8.30;99.90;;;;;;4999980;28;21096;-73
2021/05/25 03:21:21;;;;;;;17.20;16.40;;;8.20;99.90;;;;;;5006534;28;20472;-73
2021/05/25 03:23:49;;;;;;;17.93;17.03;;;8.20;99.90;;;;;;4999236;28;20469;-73
2021/05/25 03:26:16;;;;;;;17.40;16.50;;;8.20;99.90;;;;;;5001868;28;20470;-74
2021/05/25 03:28:42;;;;;;;17.17;16.30;;;8.20;99.90;;;;;;4997511;28;21056;-75
2021/05/25 03:31:09;;;;;;;17.60;16.63;;;8.20;99.90;;;;;;5004567;28;20466;-73
2021/05/25 03:33:35;;;;;;;17.33;16.47;;;8.20;99.90;;;;;;5001912;28;20458;-74
2021/05/25 03:36:01;;;;;;;17.60;16.60;;;8.20;99.90;;;;;;4994888;28;22857;-73
2021/05/25 03:38:28;;;;;;;16.97;16.00;;;8.30;99.90;;;;;;5005307;28;20504;-74
2021/05/25 03:40:55;;;;;;;16.13;15.33;;;8.30;99.90;;;;;;4998735;28;20454;-74
2021/05/25 03:43:22;;;;;;;15.87;15.07;;;8.20;99.90;;;;;;5003951;28;20461;-73
2021/05/25 03:45:49;;;;;;;16.00;15.20;;;8.20;99.90;;;;;;5003103;28;20472;-73
2021/05/25 03:48:17;;;;;;;15.40;14.70;;;8.20;99.90;;;;;;5003160;28;20551;-74
2021/05/25 03:50:44;;;;;;;15.10;14.20;;;8.30;99.90;;;;;;5003235;28;20470;-74
2021/05/25 03:53:10;;;;;;;15.07;14.33;;;8.30;99.90;;;;;;4999508;28;20513;-74
2021/05/25 03:55:51;;;;;;;14.47;13.87;;;8.30;99.90;;;;;;4999082;28;20462;-74
2021/05/25 04:01:03;;;;;;;14.67;13.97;;;8.40;99.90;;;;;;5005435;28;20464;-74
2021/05/25 04:03:30;;;;;;;14.70;14.00;;;8.40;99.90;;;;;;5004665;28;20832;-74
2021/05/25 04:05:56;;;;;;;14.97;14.17;;;8.40;99.90;;;;;;4999988;28;20467;-74
2021/05/25 04:08:23;;;;;;;14.37;13.77;;;8.40;99.90;;;;;;5006139;28;20875;-74
2021/05/25 04:10:50;;;;;;;14.40;13.70;;;8.50;99.90;;;;;;5005714;28;20515;-74
2021/05/25 04:13:18;;;;;;;14.97;14.27;;;8.50;99.90;;;;;;4996113;28;20507;-73
2021/05/25 04:15:47;;;;;;;14.23;13.53;;;8.60;99.90;;;;;;5002855;28;20455;-74
2021/05/25 04:18:14;;;;;;;14.13;13.50;;;8.70;99.90;;;;;;5003383;28;20487;-74
2021/05/25 04:20:41;;;;;;;14.30;13.60;;;8.70;99.90;;;;;;4997093;28;20486;-74
2021/05/25 04:23:07;;;;;;;14.03;13.33;;;8.80;99.90;;;;;;5000048;28;20901;-74
2021/05/25 04:25:34;;;;;;;13.57;12.97;;;8.90;99.90;;;;;;5000449;28;20992;-73
2021/05/25 04:28:01;;;;;;;14.30;13.60;;;8.90;99.90;;;;;;5003080;28;20472;-74
2021/05/25 04:30:28;;;;;;;16.17;15.07;;;9.00;99.90;;;;;;5005426;28;20499;-75
2021/05/25 04:32:54;;;;;;;16.00;15.10;;;9.00;99.90;;;;;;5004351;28;20515;-75
2021/05/25 04:35:22;;;;;;;23.00;19.70;;;9.10;99.90;;;;;;5003454;28;20485;-73
2021/05/25 04:37:50;;;;;;;21.23;19.83;;;9.00;99.90;;;;;;4995026;28;20979;-74
2021/05/25 04:40:17;;;;;;;21.70;20.40;;;9.00;99.90;;;;;;5002434;28;20482;-74
2021/05/25 04:42:44;;;;;;;20.70;19.47;;;9.00;99.90;;;;;;5002102;28;20468;-74
2021/05/25 04:45:12;;;;;;;20.63;19.23;;;8.90;99.90;;;;;;5001377;28;20471;-74
2021/05/25 04:47:39;;;;;;;21.00;19.70;;;8.90;99.90;;;;;;4987686;28;20774;-75
2021/05/25 04:50:07;;;;;;;21.40;20.10;;;8.80;99.90;;;;;;5003605;28;20497;-74
2021/05/25 04:52:34;;;;;;;21.10;19.80;;;8.80;99.90;;;;;;4998940;28;20540;-74
2021/05/25 04:55:00;;;;;;;20.77;19.57;;;8.80;99.90;;;;;;5000820;28;20465;-74
2021/05/25 04:57:29;;;;;;;19.97;18.80;;;8.70;99.90;;;;;;4999543;28;20986;-75
2021/05/25 04:59:55;;;;;;;19.60;18.40;;;8.80;99.90;;;;;;5004691;28;20490;-74
2021/05/25 05:02:21;;;;;;;21.27;19.77;;;8.70;99.90;;;;;;4999921;28;20462;-73
2021/05/25 05:04:49;;;;;;;21.70;20.30;;;8.60;99.90;;;;;;4999767;28;20624;-74
2021/05/25 05:07:15;;;;;;;22.03;20.40;;;8.60;99.90;;;;;;4999967;28;20462;-77
2021/05/25 05:09:42;;;;;;;22.77;21.10;;;8.60;99.90;;;;;;5005626;28;20462;-76
2021/05/25 05:12:09;;;;;;;21.23;19.93;;;8.70;99.90;;;;;;5004843;28;20467;-76
2021/05/25 05:14:35;;;;;;;20.83;19.53;;;8.60;99.90;;;;;;5004661;28;20460;-77
2021/05/25 05:17:01;;;;;;;20.20;19.10;;;8.60;99.90;;;;;;5003984;28;20480;-76
2021/05/25 05:19:27;;;;;;;20.10;18.90;;;8.70;99.90;;;;;;5004312;28;20462;-75
2021/05/25 05:21:55;;;;;;;20.00;18.70;;;8.70;99.90;;;;;;5002395;28;20465;-77
2021/05/25 05:24:21;;;;;;;19.10;18.10;;;8.80;99.90;;;;;;5001314;28;20463;-76
2021/05/25 05:26:49;;;;;;;19.70;18.57;;;8.80;99.90;;;;;;5003568;28;20675;-76
2021/05/25 05:29:15;;;;;;;19.97;18.67;;;8.70;99.90;;;;;;5000905;28;20487;-75
2021/05/25 05:31:42;;;;;;;19.60;18.30;;;8.80;99.90;;;;;;5004291;28;21028;-77
2021/05/25 05:34:08;;;;;;;19.60;18.40;;;8.80;99.90;;;;;;4999620;28;20474;-75
2021/05/25 05:36:34;;;;;;;19.80;18.70;;;8.90;99.90;;;;;;4998028;28;20474;-76
2021/05/25 05:39:02;;;;;;;19.70;18.60;;;8.70;99.90;;;;;;5002398;28;21091;-76
2021/05/25 05:41:29;;;;;;;19.60;18.40;;;8.70;99.90;;;;;;5006504;28;20544;-75
2021/05/25 05:43:56;;;;;;;19.60;18.40;;;8.60;99.90;;;;;;5004487;28;20468;-76
2021/05/25 05:46:24;;;;;;;19.57;18.47;;;8.70;99.90;;;;;;5001494;28;21239;-76
2021/05/25 05:48:50;;;;;;;20.43;19.03;;;8.60;99.90;;;;;;5000352;28;20458;-76
2021/05/25 05:51:17;;;;;;;19.87;18.67;;;8.60;99.90;;;;;;5004023;28;20460;-78
2021/05/25 05:53:44;;;;;;;20.67;19.40;;;8.70;99.90;;;;;;5006696;28;20482;-78
2021/05/25 05:56:11;;;;;;;18.63;17.73;;;9.00;99.90;;;;;;4997007;28;20466;-75
2021/05/25 05:58:37;;;;;;;18.93;17.93;;;9.00;99.90;;;;;;4999803;28;20778;-73
2021/05/25 06:01:04;;;;;;;18.20;17.30;;;8.90;99.90;;;;;;4999930;28;20470;-75
2021/05/25 06:03:30;;;;;;;18.30;17.40;;;8.70;99.90;;;;;;4999288;28;20589;-74
2021/05/25 06:05:57;;;;;;;17.90;17.00;;;8.50;99.90;;;;;;5004858;28;21012;-75
2021/05/25 06:08:23;;;;;;;17.13;16.33;;;8.50;99.90;;;;;;5003538;28;20465;-75
2021/05/25 06:10:51;;;;;;;17.20;16.40;;;8.50;99.90;;;;;;5001474;28;20458;-76
2021/05/25 06:13:19;;;;;;;17.13;16.33;;;8.50;99.90;;;;;;4996443;28;20746;-76
2021/05/25 06:15:47;;;;;;;16.40;15.60;;;8.60;99.90;;;;;;5002236;28;20470;-78
2021/05/25 06:18:14;;;;;;;16.80;16.00;;;8.50;99.90;;;;;;4996136;28;21072;-76
2021/05/25 06:20:41;;;;;;;16.93;16.13;;;8.50;99.90;;;;;;5004114;28;20472;-76
2021/05/25 06:23:07;;;;;;;18.63;17.63;;;8.50;99.90;;;;;;4999898;28;21009;-76
2021/05/25 06:25:34;;;;;;;16.97;16.17;;;8.60;99.90;;;;;;4998578;28;20463;-76
2021/05/25 06:28:00;;;;;;;16.60;15.80;;;8.70;99.90;;;;;;5001726;28;20474;-76
2021/05/25 06:30:30;;;;;;;15.33;14.63;;;8.60;99.90;;;;;;5001427;28;20496;-75
2021/05/25 06:32:57;;;;;;;15.20;14.50;;;8.90;99.90;;;;;;5000910;28;20466;-75
2021/05/25 06:35:23;;;;;;;14.50;13.90;;;9.10;99.90;;;;;;5003102;28;20475;-74
2021/05/25 06:37:50;;;;;;;14.70;14.10;;;9.20;99.90;;;;;;5000581;28;20490;-75
2021/05/25 06:40:17;;;;;;;14.83;14.13;;;9.30;99.90;;;;;;5000946;28;20472;-74
2021/05/25 06:42:44;;;;;;;14.70;14.00;;;9.10;99.90;;;;;;4990482;28;21210;-75
2021/05/25 06:45:12;;;;;;;14.67;13.97;;;9.20;99.90;;;;;;5002564;28;20571;-75
2021/05/25 06:47:39;;;;;;;14.30;13.70;;;9.40;99.90;;;;;;5002519;28;20471;-74
2021/05/25 06:50:07;;;;;;;14.37;13.77;;;9.60;99.90;;;;;;5001251;28;20509;-74
2021/05/25 06:52:33;;;;;;;15.90;15.10;;;9.60;99.90;;;;;;4999305;28;20506;-75
2021/05/25 06:55:03;;;;;;;17.10;16.20;;;9.20;99.90;;;;;;4999305;28;20985;-76
2021/05/25 06:57:29;;;;;;;17.13;16.30;;;8.70;99.90;;;;;;5001292;28;21045;-75
2021/05/25 06:59:55;;;;;;;16.90;16.10;;;8.50;99.90;;;;;;5003213;28;20473;-76
2021/05/25 07:02:23;;;;;;;17.30;16.40;;;8.20;99.90;;;;;;4997793;28;20462;-75
2021/05/25 07:04:50;;;;;;;16.83;16.03;;;8.20;99.90;;;;;;4995590;28;20489;-74
2021/05/25 07:07:17;;;;;;;17.10;16.30;;;8.20;99.90;;;;;;4995843;28;20552;-77
2021/05/25 07:09:43;;;;;;;16.73;15.93;;;8.20;99.90;;;;;;4997460;28;20480;-76
2021/05/25 07:12:11;;;;;;;16.67;15.87;;;8.20;99.90;;;;;;5000530;28;20475;-76
2021/05/25 07:14:37;;;;;;;15.80;15.10;;;8.30;99.90;;;;;;4997930;28;21003;-74
2021/05/25 07:17:04;;;;;;;15.10;14.40;;;8.50;99.90;;;;;;5003115;28;20471;-76
2021/05/25 07:19:30;;;;;;;14.73;14.03;;;8.60;99.90;;;;;;5003699;28;20517;-76
2021/05/25 07:21:58;;;;;;;15.00;14.30;;;8.80;99.90;;;;;;5001592;28;20465;-75
2021/05/25 07:24:25;;;;;;;14.30;13.70;;;8.80;99.90;;;;;;4998281;28;20487;-75
2021/05/25 07:26:52;;;;;;;14.10;13.50;;;9.10;99.90;;;;;;4995335;28;20562;-74
2021/05/25 07:29:18;;;;;;;14.27;13.67;;;9.40;99.90;;;;;;4995190;28;21251;-74
2021/05/25 07:31:45;;;;;;;14.73;14.03;;;9.30;99.90;;;;;;4998033;28;20481;-74
2021/05/25 07:34:12;;;;;;;14.63;13.93;;;9.20;99.90;;;;;;4996933;28;20529;-75
2021/05/25 07:36:38;;;;;;;14.40;13.80;;;9.10;99.90;;;;;;4994053;28;20460;-75
2021/05/25 07:39:07;;;;;;;15.20;14.50;;;9.40;99.90;;;;;;4995748;28;21041;-74
2021/05/25 07:41:33;;;;;;;14.20;13.60;;;9.40;99.90;;;;;;5004132;28;20976;-76
2021/05/25 07:44:00;;;;;;;14.60;13.90;;;9.80;99.90;;;;;;4990382;28;20469;-76
2021/05/25 07:46:27;;;;;;;15.13;14.43;;;10.10;99.90;;;;;;4998297;28;20464;-76
2021/05/25 07:48:54;;;;;;;14.70;14.00;;;10.10;99.90;;;;;;4992993;28;20464;-75
2021/05/25 07:51:21;;;;;;;14.77;14.07;;;10.30;99.90;;;;;;4996507;28;20460;-74
2021/05/25 07:53:48;;;;;;;15.33;14.63;;;10.30;99.90;;;;;;4998397;28;20599;-74
2021/05/25 07:56:15;;;;;;;15.70;15.00;;;10.20;99.90;;;;;;4996481;28;21006;-74
2021/05/25 07:58:41;;;;;;;16.70;15.90;;;10.20;99.90;;;;;;4997405;28;20485;-75
2021/05/25 08:01:09;;;;;;;16.30;15.50;;;10.10;99.90;;;;;;4998776;28;21103;-74
2021/05/25 08:03:35;;;;;;;16.07;15.27;;;10.10;99.90;;;;;;5000351;28;20472;-75
2021/05/25 08:06:02;;;;;;;16.00;15.23;;;10.10;99.90;;;;;;5001025;28;20676;-76
2021/05/25 08:08:30;;;;;;;16.27;15.47;;;10.30;99.90;;;;;;5001468;28;20467;-75
2021/05/25 08:10:56;;;;;;;15.80;15.07;;;10.50;99.90;;;;;;5001582;28;20465;-74
2021/05/25 08:13:24;;;;;;;16.73;15.93;;;10.60;99.90;;;;;;4997025;28;20963;-75
2021/05/25 08:15:51;;;;;;;16.70;15.90;;;10.70;99.90;;;;;;4997776;28;20472;-73
2021/05/25 08:18:28;;;;;;;16.73;15.93;;;10.90;99.90;;;;;;4992383;28;20496;-74
2021/05/25 08:20:54;;;;;;;16.27;15.47;;;11.40;99.90;;;;;;5000685;28;20504;-73
2021/05/25 08:23:21;;;;;;;16.50;15.70;;;11.90;99.90;;;;;;5000060;28;20460;-74
2021/05/25 08:25:47;;;;;;;17.43;16.53;;;12.10;99.90;;;;;;4996869;28;20466;-75
2021/05/25 08:28:14;;;;;;;17.40;16.60;;;12.10;99.90;;;;;;4999328;28;20549;-74
2021/05/25 08:30:44;;;;;;;16.47;15.67;;;12.00;99.90;;;;;;5002119;28;20476;-74
2021/05/25 08:33:14;;;;;;;16.47;15.67;;;12.10;99.90;;;;;;4998959;28;20465;-74
2021/05/25 08:35:41;;;;;;;15.70;15.00;;;11.80;99.90;;;;;;4994487;28;20552;-75
2021/05/25 08:38:09;;;;;;;15.10;14.40;;;11.70;99.90;;;;;;4997039;28;20489;-76
2021/05/25 08:40:37;;;;;;;17.10;16.20;;;11.80;99.90;;;;;;4994897;28;20498;-75
2021/05/25 08:43:04;;;;;;;18.00;16.80;;;12.20;99.90;;;;;;4996718;28;21077;-75
2021/05/25 08:45:31;;;;;;;15.80;15.00;;;12.50;99.90;;;;;;5000928;28;20462;-74
2021/05/25 08:47:59;;;;;;;16.10;15.20;;;12.70;99.90;;;;;;4995662;28;21058;-76
2021/05/25 08:50:29;;;;;;;16.77;15.97;;;12.60;99.90;;;;;;4998953;28;20470;-77
2021/05/25 08:52:59;;;;;;;16.40;15.60;;;12.60;99.90;;;;;;5000245;28;20956;-74
2021/05/25 08:55:27;;;;;;;16.30;15.50;;;12.90;99.90;;;;;;4996121;28;20480;-74
2021/05/25 08:57:53;;;;;;;15.83;15.03;;;12.90;99.90;;;;;;4994503;28;20486;-76
2021/05/25 09:00:20;;;;;;;16.50;15.50;;;13.10;99.90;;;;;;4993961;28;20489;-75
2021/05/25 09:02:47;;;;;;;14.90;14.20;;;13.10;99.90;;;;;;4994067;28;20463;-77
2021/05/25 09:05:18;;;;;;;17.00;15.80;;;12.80;99.90;;;;;;4995377;28;20469;-75
2021/05/25 09:07:46;;;;;;;15.27;14.50;;;12.60;99.90;;;;;;5000062;28;20485;-75
2021/05/25 09:10:16;;;;;;;15.13;14.33;;;12.30;99.90;;;;;;4996056;28;20479;-75
2021/05/25 09:12:45;;;;;;;14.50;13.70;;;12.00;99.90;;;;;;4995323;28;20569;-74
2021/05/25 09:15:12;;;;;;;17.50;16.10;;;11.70;99.90;;;;;;4998082;28;20466;-77
2021/05/25 09:17:39;;;;;;;17.47;16.57;;;11.70;99.90;;;;;;4999311;28;20849;-75
2021/05/25 09:20:09;;;;;;;21.60;19.97;;;11.40;99.90;;;;;;4996172;28;20476;-73
2021/05/25 09:22:38;;;;;;;24.17;22.47;;;11.10;99.90;;;;;;5000887;28;20474;-76
2021/05/25 09:25:14;;;;;;;21.90;20.60;;;10.60;99.90;;;;;;4997347;28;21001;-75
2021/05/25 09:27:42;;;;;;;21.53;20.23;;;10.10;99.90;;;;;;4994049;28;20538;-79
2021/05/25 09:30:14;;;;;;;21.00;19.80;;;9.80;99.90;;;;;;4995366;28;20854;-76
2021/05/25 09:32:46;;;;;;;19.73;18.63;;;9.60;99.90;;;;;;4999482;28;20465;-78
2021/05/25 09:35:13;;;;;;;18.40;17.40;;;9.50;99.90;;;;;;4992933;28;20500;-80
2021/05/25 09:37:46;;;;;;;17.90;17.00;;;9.60;99.90;;;;;;4992039;28;20500;-77
2021/05/25 09:40:15;;;;;;;17.60;16.70;;;9.70;99.90;;;;;;5004509;28;20470;-77
2021/05/25 09:42:42;;;;;;;16.30;15.50;;;9.80;99.90;;;;;;4996623;28;20958;-78
2021/05/25 09:45:12;;;;;;;15.50;14.80;;;10.10;99.90;;;;;;4996496;28;20461;-77
2021/05/25 09:47:40;;;;;;;15.30;14.60;;;10.30;99.90;;;;;;5001496;28;20841;-76
2021/05/25 09:50:09;;;;;;;14.63;13.93;;;10.40;99.90;;;;;;4994997;28;20472;-76
2021/05/25 09:52:35;;;;;;;15.00;14.30;;;10.50;99.90;;;;;;4997027;28;20512;-77
2021/05/25 09:55:11;;;;;;;14.73;14.07;;;10.60;99.90;;;;;;4993463;28;20486;-74
2021/05/25 09:57:49;;;;;;;13.70;13.10;;;10.50;99.90;;;;;;4998087;28;21082;-78
2021/05/25 10:00:28;;;;;;;14.00;13.40;;;10.60;99.90;;;;;;4994213;28;20603;-76
2021/05/25 10:03:19;;;;;;;14.07;13.47;;;10.70;99.90;;;;;;4993347;28;20893;-76
2021/05/25 10:05:48;;;;;;;14.00;13.37;;;10.80;99.90;;;;;;4979785;28;20529;-75
2021/05/25 10:08:20;;;;;;;14.50;13.80;;;10.90;99.90;;;;;;4994557;28;20471;-75
2021/05/25 10:10:47;;;;;;;13.93;13.33;;;11.30;99.90;;;;;;4996233;28;20913;-77
2021/05/25 10:13:15;;;;;;;14.17;13.57;;;11.80;99.90;;;;;;4997981;28;20493;-77
2021/05/25 10:15:43;;;;;;;16.13;15.33;;;12.20;99.90;;;;;;5000506;28;20461;-75
2021/05/25 10:18:18;;;;;;;16.33;15.53;;;12.20;99.90;;;;;;4993697;28;20514;-74
2021/05/25 10:20:45;;;;;;;18.23;17.23;;;11.90;99.90;;;;;;4995678;28;20488;-78
2021/05/25 10:23:12;;;;;;;17.93;16.93;;;11.20;99.90;;;;;;4988370;28;21043;-78
2021/05/25 10:25:40;;;;;;;18.50;17.50;;;10.50;99.90;;;;;;4997218;28;21033;-75
2021/05/25 10:28:10;;;;;;;18.80;17.70;;;10.30;99.90;;;;;;4998268;28;20896;-74
2021/05/25 10:30:44;;;;;;;18.30;17.30;;;10.10;99.90;;;;;;4996677;28;20487;-75
2021/05/25 10:33:28;;;;;;;17.93;16.93;;;9.90;99.90;;;;;;4990992;28;20464;-78
2021/05/25 10:35:57;;;;;;;18.00;17.00;;;9.90;99.90;;;;;;4994103;28;20486;-80
2021/05/25 10:38:26;;;;;;;17.00;16.10;;;9.70;99.90;;;;;;4996196;28;20491;-77
2021/05/25 10:40:54;;;;;;;16.23;15.43;;;9.90;99.90;;;;;;4998839;28;20587;-78
2021/05/25 10:43:42;;;;;;;14.80;14.10;;;10.10;99.90;;;;;;4999720;28;20560;-78
2021/05/25 10:46:17;;;;;;;13.43;12.83;;;10.60;99.90;;;;;;5001239;28;21098;-76
2021/05/25 10:49:04;;;;;;;12.93;12.33;;;11.30;99.90;;;;;;4996935;28;20475;-75
2021/05/25 10:52:14;;;;;;;12.50;12.00;;;11.70;99.90;;;;;;4995278;28;20611;-76
2021/05/25 10:54:59;;;;;;;14.23;13.53;;;12.90;99.90;;;;;;4994819;28;20506;-75
2021/05/25 10:57:36;;;;;;;16.10;15.30;;;14.20;99.90;;;;;;4999339;28;20474;-75
2021/05/25 11:00:07;;;;;;;15.33;14.60;;;13.70;99.90;;;;;;4998421;28;21060;-78
2021/05/25 11:02:48;;;;;;;15.87;15.07;;;13.80;99.90;;;;;;4993549;28;20976;-75
2021/05/25 11:05:41;;;;;;;17.50;16.60;;;13.90;99.90;;;;;;4989149;28;20509;-77
2021/05/25 11:08:42;;;;;;;16.57;15.77;;;13.80;99.90;;;;;;4992116;28;20470;-75
2021/05/25 11:11:17;;;;;;;16.90;16.00;;;14.40;99.90;;;;;;4992766;28;20512;-75
2021/05/25 11:13:51;;;;;;;16.70;15.90;;;14.10;99.90;;;;;;4993867;28;20453;-75
2021/05/25 11:16:30;;;;;;;16.80;16.00;;;14.30;99.90;;;;;;4998932;28;20529;-74
2021/05/25 11:19:19;;;;;;;16.40;15.60;;;14.80;99.90;;;;;;4991800;28;20528;-75
2021/05/25 11:22:01;;;;;;;16.50;15.70;;;15.30;99.90;;;;;;4998851;28;20501;-75
2021/05/25 11:24:31;;;;;;;15.93;15.23;;;16.20;99.90;;;;;;5000934;28;20517;-73
2021/05/25 11:27:09;;;;;;;21.00;19.47;;;16.40;99.90;;;;;;4996612;28;21027;-72
2021/05/25 11:29:36;;;;;;;21.43;19.70;;;17.20;99.90;;;;;;4996874;28;20545;-73
2021/05/25 11:32:15;;;;;;;19.23;18.10;;;18.00;99.90;;;;;;4998811;28;20501;-75
2021/05/25 11:34:42;;;;;;;17.80;16.90;;;18.00;99.90;;;;;;4996084;28;21024;-74
2021/05/25 11:37:10;;;;;;;18.67;17.33;;;17.80;99.90;;;;;;4998659;28;20706;-73
2021/05/25 11:39:37;;;;;;;18.70;17.37;;;17.20;99.90;;;;;;5000529;28;20851;-74
2021/05/25 11:42:06;;;;;;;18.97;17.53;;;16.80;99.90;;;;;;5001599;28;20473;-73
2021/05/25 11:44:37;;;;;;;18.03;16.83;;;16.30;99.90;;;;;;4995884;28;20682;-74
2021/05/25 11:47:07;;;;;;;16.20;15.30;;;15.30;99.90;;;;;;5005886;28;20469;-73
2021/05/25 11:49:37;;;;;;;22.50;20.80;;;13.40;99.90;;;;;;4998499;28;20926;-72
2021/05/25 11:52:23;;;;;;;22.60;21.10;;;11.20;99.90;;;;;;4999447;28;20491;-72
2021/05/25 11:54:51;;;;;;;20.60;19.40;;;10.00;99.90;;;;;;5000683;28;20616;-73
2021/05/25 11:57:26;;;;;;;22.63;21.20;;;9.40;99.90;;;;;;4987963;28;20837;-74
2021/05/25 11:59:52;;;;;;;20.23;18.97;;;9.10;99.90;;;;;;4994382;28;20898;-73
2021/05/25 12:02:27;;;;;;;19.77;18.57;;;8.80;99.90;;;;;;5000920;28;20467;-75
2021/05/25 12:05:18;;;;;;;18.77;17.67;;;8.50;99.90;;;;;;5000398;28;20476;-76
2021/05/25 12:07:47;;;;;;;18.77;17.70;;;8.30;99.90;;;;;;4996469;28;20567;-76
2021/05/25 12:10:15;;;;;;;17.70;16.70;;;8.10;99.90;;;;;;5000552;28;20492;-77
2021/05/25 12:12:44;;;;;;;17.63;16.73;;;8.10;99.90;;;;;;4999768;28;20471;-76
2021/05/25 12:15:16;;;;;;;17.13;16.23;;;8.00;99.90;;;;;;5003210;28;21211;-77
2021/05/25 12:17:44;;;;;;;17.30;16.40;;;8.20;99.90;;;;;;4998944;28;21113;-76
2021/05/25 12:20:17;;;;;;;16.77;15.87;;;8.40;99.90;;;;;;5000313;28;20471;-78
2021/05/25 12:22:46;;;;;;;16.70;15.80;;;8.60;99.90;;;;;;4998844;28;20494;-76
2021/05/25 12:25:18;;;;;;;15.27;14.57;;;8.90;99.90;;;;;;4997216;28;20609;-78
2021/05/25 12:27:45;;;;;;;15.00;14.30;;;9.30;99.90;;;;;;4996856;28;21115;-76
2021/05/25 12:30:14;;;;;;;14.83;14.13;;;9.60;99.90;;;;;;4997416;28;20536;-74
2021/05/25 12:32:42;;;;;;;14.47;13.77;;;9.70;99.90;;;;;;5000243;28;20851;-73
2021/05/25 12:35:09;;;;;;;13.43;12.83;;;10.00;99.90;;;;;;5000053;28;20956;-72
2021/05/25 12:37:36;;;;;;;13.37;12.77;;;10.30;99.90;;;;;;4995988;28;20469;-73
2021/05/25 12:40:06;;;;;;;13.30;12.70;;;10.50;99.90;;;;;;5000900;28;20556;-72
2021/05/25 12:42:36;;;;;;;14.20;13.57;;;11.00;99.90;;;;;;5000175;28;20466;-72
2021/05/25 12:45:11;;;;;;;17.50;16.60;;;11.50;99.90;;;;;;4999926;28;20584;-72